sensor_id;sensor_type;location;lat;lon;timestamp;P1;durP1;ratioP1;P2;durP2;ratioP2
77022;SDS011;65952;51.440;-2.054;2024-01-15T00:00:18;4.72;;;1.80;;
77022;SDS011;65952;51.440;-2.054;2024-01-15T00:02:43;3.50;;;2.13;;
77022;SDS011;65952;51.440;-2.054;2024-01-15T00:05:09;3.03;;;1.70;;
77022;SDS011;65952;51.440;-2.054;2024-01-15T00:07:35;3.10;;;1.63;;
77022;SDS011;65952;51.440;-2.054;2024-01-15T00:10:00;3.38;;;1.70;;
77022;SDS011;65952;51.440;-2.054;2024-01-15T00:12:26;3.35;;;1.60;;
77022;SDS011;65952;51.440;-2.054;2024-01-15T00:14:51;4.03;;;1.80;;
77022;SDS011;65952;51.440;-2.054;2024-01-15T00:17:17;3.95;;;1.70;;
77022;SDS011;65952;51.440;-2.054;2024-01-15T00:19:42;4.63;;;1.60;;
77022;SDS011;65952;51.440;-2.054;2024-01-15T00:22:08;4.97;;;1.90;;
77022;SDS011;65952;51.440;-2.054;2024-01-15T00:24:33;3.40;;;2.00;;
77022;SDS011;65952;51.440;-2.054;2024-01-15T00:26:59;3.35;;;1.70;;
77022;SDS011;65952;51.440;-2.054;2024-01-15T00:29:24;4.78;;;2.00;;
77022;SDS011;65952;51.440;-2.054;2024-01-15T00:31:49;3.92;;;2.00;;
77022;SDS011;65952;51.440;-2.054;2024-01-15T00:34:15;3.58;;;1.60;;
77022;SDS011;65952;51.440;-2.054;2024-01-15T00:36:40;3.20;;;1.70;;
77022;SDS011;65952;51.440;-2.054;2024-01-15T00:39:06;3.30;;;1.73;;
77022;SDS011;65952;51.440;-2.054;2024-01-15T00:41:31;4.38;;;1.83;;
77022;SDS011;65952;51.440;-2.054;2024-01-15T00:43:57;4.57;;;1.80;;
77022;SDS011;65952;51.440;-2.054;2024-01-15T00:46:22;3.13;;;1.55;;
77022;SDS011;65952;51.440;-2.054;2024-01-15T00:48:48;4.85;;;1.70;;
77022;SDS011;65952;51.440;-2.054;2024-01-15T00:51:13;3.30;;;1.60;;
77022;SDS011;65952;51.440;-2.054;2024-01-15T00:53:38;3.17;;;1.73;;
77022;SDS011;65952;51.440;-2.054;2024-01-15T00:56:04;3.55;;;1.70;;
77022;SDS011;65952;51.440;-2.054;2024-01-15T00:58:29;4.78;;;1.77;;
77022;SDS011;65952;51.440;-2.054;2024-01-15T01:00:55;4.80;;;1.70;;
77022;SDS011;65952;51.440;-2.054;2024-01-15T01:03:20;3.70;;;1.88;;
77022;SDS011;65952;51.440;-2.054;2024-01-15T01:05:50;4.43;;;1.70;;
77022;SDS011;65952;51.440;-2.054;2024-01-15T01:08:16;3.50;;;1.77;;
77022;SDS011;65952;51.440;-2.054;2024-01-15T01:10:41;4.35;;;1.90;;
77022;SDS011;65952;51.440;-2.054;2024-01-15T01:13:09;4.05;;;1.70;;
77022;SDS011;65952;51.440;-2.054;2024-01-15T01:15:34;3.85;;;1.83;;
77022;SDS011;65952;51.440;-2.054;2024-01-15T01:18:00;3.47;;;1.90;;
77022;SDS011;65952;51.440;-2.054;2024-01-15T01:20:25;4.28;;;1.92;;
77022;SDS011;65952;51.440;-2.054;2024-01-15T01:22:51;3.15;;;1.77;;
77022;SDS011;65952;51.440;-2.054;2024-01-15T01:25:17;3.55;;;1.83;;
77022;SDS011;65952;51.440;-2.054;2024-01-15T01:27:42;5.75;;;2.05;;
77022;SDS011;65952;51.440;-2.054;2024-01-15T01:30:08;4.07;;;1.83;;
77022;SDS011;65952;51.440;-2.054;2024-01-15T01:32:34;3.92;;;1.90;;
77022;SDS011;65952;51.440;-2.054;2024-01-15T01:34:59;5.03;;;1.95;;
77022;SDS011;65952;51.440;-2.054;2024-01-15T01:37:24;5.57;;;1.90;;
77022;SDS011;65952;51.440;-2.054;2024-01-15T01:39:50;4.57;;;2.05;;
77022;SDS011;65952;51.440;-2.054;2024-01-15T01:42:15;4.03;;;1.90;;
77022;SDS011;65952;51.440;-2.054;2024-01-15T01:44:41;3.10;;;1.75;;
77022;SDS011;65952;51.440;-2.054;2024-01-15T01:47:06;3.58;;;2.20;;
77022;SDS011;65952;51.440;-2.054;2024-01-15T01:49:32;3.75;;;1.92;;
77022;SDS011;65952;51.440;-2.054;2024-01-15T01:52:00;3.92;;;2.00;;
77022;SDS011;65952;51.440;-2.054;2024-01-15T01:54:28;5.28;;;2.10;;
77022;SDS011;65952;51.440;-2.054;2024-01-15T01:56:55;4.28;;;1.90;;
77022;SDS011;65952;51.440;-2.054;2024-01-15T01:59:21;4.05;;;2.00;;
77022;SDS011;65952;51.440;-2.054;2024-01-15T02:01:48;4.88;;;2.05;;
77022;SDS011;65952;51.440;-2.054;2024-01-15T02:04:14;4.57;;;2.13;;
77022;SDS011;65952;51.440;-2.054;2024-01-15T02:06:41;3.50;;;2.10;;
77022;SDS011;65952;51.440;-2.054;2024-01-15T02:09:06;4.15;;;2.00;;
77022;SDS011;65952;51.440;-2.054;2024-01-15T02:11:33;4.38;;;1.70;;
77022;SDS011;65952;51.440;-2.054;2024-01-15T02:13:58;5.63;;;2.47;;
77022;SDS011;65952;51.440;-2.054;2024-01-15T02:16:24;5.50;;;2.10;;
77022;SDS011;65952;51.440;-2.054;2024-01-15T02:18:50;4.50;;;2.00;;
77022;SDS011;65952;51.440;-2.054;2024-01-15T02:21:15;4.43;;;2.20;;
77022;SDS011;65952;51.440;-2.054;2024-01-15T02:23:40;5.43;;;2.42;;
77022;SDS011;65952;51.440;-2.054;2024-01-15T02:26:06;4.75;;;2.25;;
77022;SDS011;65952;51.440;-2.054;2024-01-15T02:28:33;5.38;;;2.20;;
77022;SDS011;65952;51.440;-2.054;2024-01-15T02:30:59;4.35;;;2.22;;
77022;SDS011;65952;51.440;-2.054;2024-01-15T02:33:24;4.22;;;1.90;;
77022;SDS011;65952;51.440;-2.054;2024-01-15T02:35:50;5.47;;;2.30;;
77022;SDS011;65952;51.440;-2.054;2024-01-15T02:38:15;4.60;;;1.98;;
77022;SDS011;65952;51.440;-2.054;2024-01-15T02:40:42;5.88;;;2.40;;
77022;SDS011;65952;51.440;-2.054;2024-01-15T02:43:09;4.00;;;1.83;;
77022;SDS011;65952;51.440;-2.054;2024-01-15T02:45:34;4.10;;;1.90;;
77022;SDS011;65952;51.440;-2.054;2024-01-15T02:48:00;5.75;;;2.10;;
77022;SDS011;65952;51.440;-2.054;2024-01-15T02:50:25;4.10;;;2.20;;
77022;SDS011;65952;51.440;-2.054;2024-01-15T02:52:51;4.95;;;2.35;;
77022;SDS011;65952;51.440;-2.054;2024-01-15T02:55:16;4.70;;;2.03;;
77022;SDS011;65952;51.440;-2.054;2024-01-15T02:57:42;7.07;;;2.10;;
77022;SDS011;65952;51.440;-2.054;2024-01-15T03:00:07;6.70;;;2.20;;
77022;SDS011;65952;51.440;-2.054;2024-01-15T03:02:36;4.57;;;2.10;;
77022;SDS011;65952;51.440;-2.054;2024-01-15T03:05:04;5.82;;;2.20;;
77022;SDS011;65952;51.440;-2.054;2024-01-15T03:07:31;4.10;;;2.30;;
77022;SDS011;65952;51.440;-2.054;2024-01-15T03:09:56;4.95;;;2.20;;
77022;SDS011;65952;51.440;-2.054;2024-01-15T03:12:22;4.47;;;2.45;;
77022;SDS011;65952;51.440;-2.054;2024-01-15T03:14:47;4.15;;;2.20;;
77022;SDS011;65952;51.440;-2.054;2024-01-15T03:17:13;6.00;;;2.10;;
77022;SDS011;65952;51.440;-2.054;2024-01-15T03:19:38;4.53;;;1.90;;
77022;SDS011;65952;51.440;-2.054;2024-01-15T03:22:03;5.13;;;2.08;;
77022;SDS011;65952;51.440;-2.054;2024-01-15T03:24:29;5.00;;;2.00;;
77022;SDS011;65952;51.440;-2.054;2024-01-15T03:26:56;3.58;;;2.00;;
77022;SDS011;65952;51.440;-2.054;2024-01-15T03:29:21;3.63;;;1.80;;
77022;SDS011;65952;51.440;-2.054;2024-01-15T03:31:47;4.50;;;2.25;;
77022;SDS011;65952;51.440;-2.054;2024-01-15T03:34:15;9.85;;;2.55;;
77022;SDS011;65952;51.440;-2.054;2024-01-15T03:36:40;5.05;;;1.85;;
77022;SDS011;65952;51.440;-2.054;2024-01-15T03:39:06;3.97;;;2.13;;
77022;SDS011;65952;51.440;-2.054;2024-01-15T03:41:32;4.35;;;1.88;;
77022;SDS011;65952;51.440;-2.054;2024-01-15T03:43:58;5.20;;;1.90;;
77022;SDS011;65952;51.440;-2.054;2024-01-15T03:46:24;3.53;;;2.00;;
77022;SDS011;65952;51.440;-2.054;2024-01-15T03:48:49;4.78;;;1.70;;
77022;SDS011;65952;51.440;-2.054;2024-01-15T03:51:16;6.25;;;1.90;;
77022;SDS011;65952;51.440;-2.054;2024-01-15T03:53:42;3.55;;;1.73;;
77022;SDS011;65952;51.440;-2.054;2024-01-15T03:56:07;3.08;;;1.70;;
77022;SDS011;65952;51.440;-2.054;2024-01-15T03:58:33;4.38;;;1.65;;
77022;SDS011;65952;51.440;-2.054;2024-01-15T04:00:58;2.83;;;1.67;;
77022;SDS011;65952;51.440;-2.054;2024-01-15T04:03:24;6.45;;;1.85;;
77022;SDS011;65952;51.440;-2.054;2024-01-15T04:05:49;2.72;;;1.70;;
77022;SDS011;65952;51.440;-2.054;2024-01-15T04:08:14;2.80;;;1.60;;
77022;SDS011;65952;51.440;-2.054;2024-01-15T04:10:40;3.45;;;1.55;;
77022;SDS011;65952;51.440;-2.054;2024-01-15T04:13:05;3.67;;;1.80;;
77022;SDS011;65952;51.440;-2.054;2024-01-15T04:15:31;3.80;;;1.60;;
77022;SDS011;65952;51.440;-2.054;2024-01-15T04:17:56;4.03;;;1.80;;
77022;SDS011;65952;51.440;-2.054;2024-01-15T04:20:21;3.15;;;1.70;;
77022;SDS011;65952;51.440;-2.054;2024-01-15T04:22:47;3.60;;;1.50;;
77022;SDS011;65952;51.440;-2.054;2024-01-15T04:25:12;3.67;;;1.50;;
77022;SDS011;65952;51.440;-2.054;2024-01-15T04:27:38;3.53;;;1.73;;
77022;SDS011;65952;51.440;-2.054;2024-01-15T04:30:04;3.35;;;1.98;;
77022;SDS011;65952;51.440;-2.054;2024-01-15T04:32:30;2.78;;;1.40;;
77022;SDS011;65952;51.440;-2.054;2024-01-15T04:34:55;2.88;;;1.50;;
77022;SDS011;65952;51.440;-2.054;2024-01-15T04:37:20;5.05;;;1.60;;
77022;SDS011;65952;51.440;-2.054;2024-01-15T04:39:46;5.05;;;1.63;;
77022;SDS011;65952;51.440;-2.054;2024-01-15T04:42:11;5.20;;;1.50;;
77022;SDS011;65952;51.440;-2.054;2024-01-15T04:44:37;4.15;;;1.50;;
77022;SDS011;65952;51.440;-2.054;2024-01-15T04:47:02;6.18;;;1.63;;
77022;SDS011;65952;51.440;-2.054;2024-01-15T04:49:28;4.20;;;1.63;;
77022;SDS011;65952;51.440;-2.054;2024-01-15T04:51:54;2.53;;;1.38;;
77022;SDS011;65952;51.440;-2.054;2024-01-15T04:54:20;3.75;;;1.50;;
77022;SDS011;65952;51.440;-2.054;2024-01-15T04:56:45;3.63;;;1.63;;
77022;SDS011;65952;51.440;-2.054;2024-01-15T04:59:11;4.63;;;1.80;;
77022;SDS011;65952;51.440;-2.054;2024-01-15T05:01:36;2.75;;;1.55;;
77022;SDS011;65952;51.440;-2.054;2024-01-15T05:04:02;2.47;;;1.55;;
77022;SDS011;65952;51.440;-2.054;2024-01-15T05:06:27;4.60;;;1.70;;
77022;SDS011;65952;51.440;-2.054;2024-01-15T05:08:53;4.22;;;1.80;;
77022;SDS011;65952;51.440;-2.054;2024-01-15T05:11:18;5.13;;;1.80;;
77022;SDS011;65952;51.440;-2.054;2024-01-15T05:13:43;4.32;;;1.80;;
77022;SDS011;65952;51.440;-2.054;2024-01-15T05:16:09;7.72;;;1.88;;
77022;SDS011;65952;51.440;-2.054;2024-01-15T05:18:34;2.60;;;1.58;;
77022;SDS011;65952;51.440;-2.054;2024-01-15T05:21:02;3.72;;;1.90;;
77022;SDS011;65952;51.440;-2.054;2024-01-15T05:23:28;3.63;;;1.60;;
77022;SDS011;65952;51.440;-2.054;2024-01-15T05:25:53;3.20;;;1.67;;
77022;SDS011;65952;51.440;-2.054;2024-01-15T05:28:18;3.42;;;1.70;;
77022;SDS011;65952;51.440;-2.054;2024-01-15T05:30:44;2.60;;;1.40;;
77022;SDS011;65952;51.440;-2.054;2024-01-15T05:33:09;6.35;;;1.92;;
77022;SDS011;65952;51.440;-2.054;2024-01-15T05:35:35;4.00;;;1.52;;
77022;SDS011;65952;51.440;-2.054;2024-01-15T05:38:01;6.03;;;1.45;;
77022;SDS011;65952;51.440;-2.054;2024-01-15T05:40:27;2.55;;;1.40;;
77022;SDS011;65952;51.440;-2.054;2024-01-15T05:42:53;3.97;;;1.77;;
77022;SDS011;65952;51.440;-2.054;2024-01-15T05:45:18;2.60;;;1.60;;
77022;SDS011;65952;51.440;-2.054;2024-01-15T05:47:44;2.38;;;1.40;;
77022;SDS011;65952;51.440;-2.054;2024-01-15T05:50:09;4.32;;;1.75;;
77022;SDS011;65952;51.440;-2.054;2024-01-15T05:52:35;2.70;;;1.40;;
77022;SDS011;65952;51.440;-2.054;2024-01-15T05:55:01;4.88;;;1.98;;
77022;SDS011;65952;51.440;-2.054;2024-01-15T05:57:26;4.80;;;1.60;;
77022;SDS011;65952;51.440;-2.054;2024-01-15T05:59:52;4.70;;;1.65;;
77022;SDS011;65952;51.440;-2.054;2024-01-15T06:02:17;3.53;;;1.67;;
77022;SDS011;65952;51.440;-2.054;2024-01-15T06:04:43;2.78;;;1.60;;
77022;SDS011;65952;51.440;-2.054;2024-01-15T06:07:08;3.40;;;1.83;;
77022;SDS011;65952;51.440;-2.054;2024-01-15T06:09:33;5.47;;;1.90;;
77022;SDS011;65952;51.440;-2.054;2024-01-15T06:11:59;2.63;;;1.52;;
77022;SDS011;65952;51.440;-2.054;2024-01-15T06:14:24;3.15;;;2.03;;
77022;SDS011;65952;51.440;-2.054;2024-01-15T06:16:50;3.10;;;1.60;;
77022;SDS011;65952;51.440;-2.054;2024-01-15T06:19:15;3.97;;;1.75;;
77022;SDS011;65952;51.440;-2.054;2024-01-15T06:21:41;3.50;;;1.67;;
77022;SDS011;65952;51.440;-2.054;2024-01-15T06:24:11;5.15;;;1.90;;
77022;SDS011;65952;51.440;-2.054;2024-01-15T06:26:38;3.28;;;1.70;;
77022;SDS011;65952;51.440;-2.054;2024-01-15T06:29:04;4.03;;;1.75;;
77022;SDS011;65952;51.440;-2.054;2024-01-15T06:31:29;3.47;;;1.67;;
77022;SDS011;65952;51.440;-2.054;2024-01-15T06:33:55;3.80;;;1.80;;
77022;SDS011;65952;51.440;-2.054;2024-01-15T06:36:21;3.15;;;1.80;;
77022;SDS011;65952;51.440;-2.054;2024-01-15T06:38:46;3.30;;;1.85;;
77022;SDS011;65952;51.440;-2.054;2024-01-15T06:41:12;4.15;;;1.92;;
77022;SDS011;65952;51.440;-2.054;2024-01-15T06:43:37;4.78;;;1.80;;
77022;SDS011;65952;51.440;-2.054;2024-01-15T06:46:03;2.70;;;1.55;;
77022;SDS011;65952;51.440;-2.054;2024-01-15T06:48:31;5.35;;;1.77;;
77022;SDS011;65952;51.440;-2.054;2024-01-15T06:51:00;3.13;;;1.73;;
77022;SDS011;65952;51.440;-2.054;2024-01-15T06:53:26;3.33;;;1.70;;
77022;SDS011;65952;51.440;-2.054;2024-01-15T06:55:51;4.28;;;1.75;;
77022;SDS011;65952;51.440;-2.054;2024-01-15T06:58:17;3.97;;;1.60;;
77022;SDS011;65952;51.440;-2.054;2024-01-15T07:00:42;3.47;;;1.67;;
77022;SDS011;65952;51.440;-2.054;2024-01-15T07:03:07;3.60;;;1.55;;
77022;SDS011;65952;51.440;-2.054;2024-01-15T07:05:33;5.63;;;1.77;;
77022;SDS011;65952;51.440;-2.054;2024-01-15T07:07:58;2.78;;;1.70;;
77022;SDS011;65952;51.440;-2.054;2024-01-15T07:10:24;3.75;;;1.70;;
77022;SDS011;65952;51.440;-2.054;2024-01-15T07:12:49;4.53;;;1.58;;
77022;SDS011;65952;51.440;-2.054;2024-01-15T07:15:15;3.30;;;1.63;;
77022;SDS011;65952;51.440;-2.054;2024-01-15T07:17:40;3.20;;;1.50;;
77022;SDS011;65952;51.440;-2.054;2024-01-15T07:20:06;4.32;;;1.95;;
77022;SDS011;65952;51.440;-2.054;2024-01-15T07:22:35;3.45;;;1.80;;
77022;SDS011;65952;51.440;-2.054;2024-01-15T07:25:01;4.38;;;1.70;;
77022;SDS011;65952;51.440;-2.054;2024-01-15T07:27:27;4.47;;;1.73;;
77022;SDS011;65952;51.440;-2.054;2024-01-15T07:29:52;4.82;;;2.00;;
77022;SDS011;65952;51.440;-2.054;2024-01-15T07:32:17;4.22;;;2.05;;
77022;SDS011;65952;51.440;-2.054;2024-01-15T07:34:43;3.92;;;1.70;;
77022;SDS011;65952;51.440;-2.054;2024-01-15T07:37:08;2.97;;;1.60;;
77022;SDS011;65952;51.440;-2.054;2024-01-15T07:39:34;4.82;;;2.00;;
77022;SDS011;65952;51.440;-2.054;2024-01-15T07:41:59;4.18;;;2.08;;
77022;SDS011;65952;51.440;-2.054;2024-01-15T07:44:25;4.53;;;2.00;;
77022;SDS011;65952;51.440;-2.054;2024-01-15T07:46:51;3.17;;;1.70;;
77022;SDS011;65952;51.440;-2.054;2024-01-15T07:49:16;6.18;;;1.80;;
77022;SDS011;65952;51.440;-2.054;2024-01-15T07:51:42;4.05;;;1.58;;
77022;SDS011;65952;51.440;-2.054;2024-01-15T07:54:08;4.28;;;1.70;;
77022;SDS011;65952;51.440;-2.054;2024-01-15T07:56:34;3.50;;;1.70;;
77022;SDS011;65952;51.440;-2.054;2024-01-15T07:58:59;4.15;;;1.83;;
77022;SDS011;65952;51.440;-2.054;2024-01-15T08:01:25;3.35;;;1.83;;
77022;SDS011;65952;51.440;-2.054;2024-01-15T08:03:50;4.97;;;1.70;;
77022;SDS011;65952;51.440;-2.054;2024-01-15T08:06:17;3.88;;;1.75;;
77022;SDS011;65952;51.440;-2.054;2024-01-15T08:08:47;5.65;;;2.00;;
77022;SDS011;65952;51.440;-2.054;2024-01-15T08:11:21;4.78;;;1.90;;
77022;SDS011;65952;51.440;-2.054;2024-01-15T08:13:46;3.47;;;1.90;;
77022;SDS011;65952;51.440;-2.054;2024-01-15T08:16:12;5.40;;;1.95;;
77022;SDS011;65952;51.440;-2.054;2024-01-15T08:18:37;3.97;;;2.10;;
77022;SDS011;65952;51.440;-2.054;2024-01-15T08:21:02;3.90;;;1.92;;
77022;SDS011;65952;51.440;-2.054;2024-01-15T08:23:28;7.65;;;2.30;;
77022;SDS011;65952;51.440;-2.054;2024-01-15T08:25:56;5.35;;;2.10;;
77022;SDS011;65952;51.440;-2.054;2024-01-15T08:28:21;5.43;;;2.20;;
77022;SDS011;65952;51.440;-2.054;2024-01-15T08:30:47;5.55;;;2.28;;
77022;SDS011;65952;51.440;-2.054;2024-01-15T08:33:12;5.25;;;2.20;;
77022;SDS011;65952;51.440;-2.054;2024-01-15T08:35:38;9.23;;;2.20;;
77022;SDS011;65952;51.440;-2.054;2024-01-15T08:38:03;4.43;;;2.03;;
77022;SDS011;65952;51.440;-2.054;2024-01-15T08:40:28;5.38;;;2.05;;
77022;SDS011;65952;51.440;-2.054;2024-01-15T08:42:54;3.83;;;1.85;;
77022;SDS011;65952;51.440;-2.054;2024-01-15T08:45:19;3.20;;;1.70;;
77022;SDS011;65952;51.440;-2.054;2024-01-15T08:47:45;3.88;;;1.70;;
77022;SDS011;65952;51.440;-2.054;2024-01-15T08:50:10;3.35;;;1.70;;
77022;SDS011;65952;51.440;-2.054;2024-01-15T08:52:36;5.53;;;1.85;;
77022;SDS011;65952;51.440;-2.054;2024-01-15T08:55:02;3.80;;;1.80;;
77022;SDS011;65952;51.440;-2.054;2024-01-15T08:57:29;4.75;;;1.90;;
77022;SDS011;65952;51.440;-2.054;2024-01-15T08:59:54;2.95;;;1.60;;
77022;SDS011;65952;51.440;-2.054;2024-01-15T09:02:20;4.60;;;1.98;;
77022;SDS011;65952;51.440;-2.054;2024-01-15T09:04:45;3.35;;;1.80;;
77022;SDS011;65952;51.440;-2.054;2024-01-15T09:07:11;3.70;;;1.90;;
77022;SDS011;65952;51.440;-2.054;2024-01-15T09:09:36;5.13;;;2.00;;
77022;SDS011;65952;51.440;-2.054;2024-01-15T09:12:02;5.38;;;2.10;;
77022;SDS011;65952;51.440;-2.054;2024-01-15T09:14:27;3.75;;;1.60;;
77022;SDS011;65952;51.440;-2.054;2024-01-15T09:16:54;4.25;;;1.80;;
77022;SDS011;65952;51.440;-2.054;2024-01-15T09:19:19;2.80;;;1.60;;
77022;SDS011;65952;51.440;-2.054;2024-01-15T09:21:44;4.15;;;1.70;;
77022;SDS011;65952;51.440;-2.054;2024-01-15T09:24:10;3.97;;;1.90;;
77022;SDS011;65952;51.440;-2.054;2024-01-15T09:26:36;2.97;;;1.50;;
77022;SDS011;65952;51.440;-2.054;2024-01-15T09:29:02;4.18;;;2.05;;
77022;SDS011;65952;51.440;-2.054;2024-01-15T09:31:31;4.78;;;1.70;;
77022;SDS011;65952;51.440;-2.054;2024-01-15T09:33:57;3.13;;;1.70;;
77022;SDS011;65952;51.440;-2.054;2024-01-15T09:36:24;4.13;;;1.60;;
77022;SDS011;65952;51.440;-2.054;2024-01-15T09:38:50;3.83;;;1.70;;
77022;SDS011;65952;51.440;-2.054;2024-01-15T09:41:16;3.30;;;1.70;;
77022;SDS011;65952;51.440;-2.054;2024-01-15T09:43:41;3.70;;;1.63;;
77022;SDS011;65952;51.440;-2.054;2024-01-15T09:46:07;6.70;;;1.90;;
77022;SDS011;65952;51.440;-2.054;2024-01-15T09:48:33;2.97;;;1.60;;
77022;SDS011;65952;51.440;-2.054;2024-01-15T09:51:00;4.38;;;1.70;;
77022;SDS011;65952;51.440;-2.054;2024-01-15T09:53:26;4.82;;;1.90;;
77022;SDS011;65952;51.440;-2.054;2024-01-15T09:55:52;4.13;;;1.70;;
77022;SDS011;65952;51.440;-2.054;2024-01-15T09:58:18;3.40;;;1.77;;
77022;SDS011;65952;51.440;-2.054;2024-01-15T10:00:44;4.15;;;1.77;;
77022;SDS011;65952;51.440;-2.054;2024-01-15T10:03:10;3.42;;;1.80;;
77022;SDS011;65952;51.440;-2.054;2024-01-15T10:05:36;4.47;;;1.90;;
77022;SDS011;65952;51.440;-2.054;2024-01-15T10:08:03;4.20;;;1.67;;
77022;SDS011;65952;51.440;-2.054;2024-01-15T10:10:29;3.10;;;1.65;;
77022;SDS011;65952;51.440;-2.054;2024-01-15T10:12:56;4.50;;;1.70;;
77022;SDS011;65952;51.440;-2.054;2024-01-15T10:15:23;3.05;;;1.70;;
77022;SDS011;65952;51.440;-2.054;2024-01-15T10:17:51;4.18;;;1.70;;
77022;SDS011;65952;51.440;-2.054;2024-01-15T10:20:17;2.92;;;1.70;;
77022;SDS011;65952;51.440;-2.054;2024-01-15T10:22:47;3.50;;;1.63;;
77022;SDS011;65952;51.440;-2.054;2024-01-15T10:25:13;5.00;;;1.83;;
77022;SDS011;65952;51.440;-2.054;2024-01-15T10:27:39;4.03;;;1.60;;
77022;SDS011;65952;51.440;-2.054;2024-01-15T10:30:07;5.20;;;1.75;;
77022;SDS011;65952;51.440;-2.054;2024-01-15T10:32:41;4.05;;;1.90;;
77022;SDS011;65952;51.440;-2.054;2024-01-15T10:35:22;3.30;;;1.67;;
77022;SDS011;65952;51.440;-2.054;2024-01-15T10:37:47;4.15;;;1.70;;
77022;SDS011;65952;51.440;-2.054;2024-01-15T10:40:13;2.92;;;1.67;;
77022;SDS011;65952;51.440;-2.054;2024-01-15T10:42:41;3.50;;;1.63;;
77022;SDS011;65952;51.440;-2.054;2024-01-15T10:45:12;3.90;;;1.67;;
77022;SDS011;65952;51.440;-2.054;2024-01-15T10:47:43;3.90;;;1.67;;
77022;SDS011;65952;51.440;-2.054;2024-01-15T10:50:09;2.33;;;1.50;;
77022;SDS011;65952;51.440;-2.054;2024-01-15T10:52:38;3.05;;;1.58;;
77022;SDS011;65952;51.440;-2.054;2024-01-15T10:55:06;2.50;;;1.50;;
77022;SDS011;65952;51.440;-2.054;2024-01-15T10:57:34;3.08;;;1.50;;
77022;SDS011;65952;51.440;-2.054;2024-01-15T11:00:00;4.15;;;1.77;;
77022;SDS011;65952;51.440;-2.054;2024-01-15T11:02:29;3.03;;;1.60;;
77022;SDS011;65952;51.440;-2.054;2024-01-15T11:04:54;4.40;;;1.90;;
77022;SDS011;65952;51.440;-2.054;2024-01-15T11:07:21;3.03;;;1.50;;
77022;SDS011;65952;51.440;-2.054;2024-01-15T11:09:49;3.05;;;1.60;;
77022;SDS011;65952;51.440;-2.054;2024-01-15T11:12:15;4.18;;;1.70;;
77022;SDS011;65952;51.440;-2.054;2024-01-15T11:14:46;2.83;;;1.60;;
77022;SDS011;65952;51.440;-2.054;2024-01-15T11:17:13;4.05;;;1.67;;
77022;SDS011;65952;51.440;-2.054;2024-01-15T11:25:02;3.53;;;1.92;;
77022;SDS011;65952;51.440;-2.054;2024-01-15T11:27:51;4.55;;;1.60;;
77022;SDS011;65952;51.440;-2.054;2024-01-15T11:30:18;2.78;;;1.70;;
77022;SDS011;65952;51.440;-2.054;2024-01-15T11:32:47;5.10;;;2.20;;
77022;SDS011;65952;51.440;-2.054;2024-01-15T11:35:15;3.80;;;1.88;;
77022;SDS011;65952;51.440;-2.054;2024-01-15T11:40:43;4.05;;;1.60;;
77022;SDS011;65952;51.440;-2.054;2024-01-15T11:43:10;2.30;;;1.30;;
77022;SDS011;65952;51.440;-2.054;2024-01-15T11:45:38;3.20;;;1.30;;
77022;SDS011;65952;51.440;-2.054;2024-01-15T11:50:31;2.75;;;1.48;;
77022;SDS011;65952;51.440;-2.054;2024-01-15T11:53:02;3.45;;;1.60;;
77022;SDS011;65952;51.440;-2.054;2024-01-15T11:55:35;4.43;;;1.50;;
77022;SDS011;65952;51.440;-2.054;2024-01-15T11:58:06;3.28;;;1.52;;
77022;SDS011;65952;51.440;-2.054;2024-01-15T12:00:34;5.07;;;1.50;;
77022;SDS011;65952;51.440;-2.054;2024-01-15T12:02:59;4.05;;;1.60;;
77022;SDS011;65952;51.440;-2.054;2024-01-15T12:05:27;9.38;;;1.80;;
77022;SDS011;65952;51.440;-2.054;2024-01-15T12:07:52;2.90;;;1.58;;
77022;SDS011;65952;51.440;-2.054;2024-01-15T12:10:18;3.22;;;1.52;;
77022;SDS011;65952;51.440;-2.054;2024-01-15T12:13:03;4.28;;;1.70;;
77022;SDS011;65952;51.440;-2.054;2024-01-15T12:15:35;2.45;;;1.48;;
77022;SDS011;65952;51.440;-2.054;2024-01-15T12:18:01;1.98;;;1.42;;
77022;SDS011;65952;51.440;-2.054;2024-01-15T12:20:28;4.28;;;1.80;;
77022;SDS011;65952;51.440;-2.054;2024-01-15T12:22:57;3.28;;;1.55;;
77022;SDS011;65952;51.440;-2.054;2024-01-15T12:25:23;2.83;;;1.60;;
77022;SDS011;65952;51.440;-2.054;2024-01-15T12:27:49;3.17;;;1.70;;
77022;SDS011;65952;51.440;-2.054;2024-01-15T12:30:16;3.80;;;1.60;;
77022;SDS011;65952;51.440;-2.054;2024-01-15T12:32:41;3.65;;;1.58;;
77022;SDS011;65952;51.440;-2.054;2024-01-15T12:35:07;2.28;;;1.30;;
77022;SDS011;65952;51.440;-2.054;2024-01-15T12:37:37;3.60;;;1.50;;
77022;SDS011;65952;51.440;-2.054;2024-01-15T12:40:06;2.28;;;1.40;;
77022;SDS011;65952;51.440;-2.054;2024-01-15T12:42:34;3.30;;;1.60;;
77022;SDS011;65952;51.440;-2.054;2024-01-15T12:45:00;2.33;;;1.40;;
77022;SDS011;65952;51.440;-2.054;2024-01-15T12:47:26;4.45;;;1.60;;
77022;SDS011;65952;51.440;-2.054;2024-01-15T12:49:52;3.10;;;1.58;;
77022;SDS011;65952;51.440;-2.054;2024-01-15T12:52:21;2.65;;;1.50;;
77022;SDS011;65952;51.440;-2.054;2024-01-15T12:54:47;2.63;;;1.60;;
77022;SDS011;65952;51.440;-2.054;2024-01-15T12:57:13;3.60;;;2.05;;
77022;SDS011;65952;51.440;-2.054;2024-01-15T12:59:39;3.95;;;1.90;;
77022;SDS011;65952;51.440;-2.054;2024-01-15T13:02:04;3.20;;;1.70;;
77022;SDS011;65952;51.440;-2.054;2024-01-15T13:04:30;3.70;;;1.83;;
77022;SDS011;65952;51.440;-2.054;2024-01-15T13:06:56;4.80;;;1.50;;
77022;SDS011;65952;51.440;-2.054;2024-01-15T13:09:22;3.05;;;1.48;;
77022;SDS011;65952;51.440;-2.054;2024-01-15T13:11:47;3.88;;;1.40;;
77022;SDS011;65952;51.440;-2.054;2024-01-15T13:14:12;4.40;;;1.48;;
77022;SDS011;65952;51.440;-2.054;2024-01-15T13:16:40;2.30;;;1.33;;
77022;SDS011;65952;51.440;-2.054;2024-01-15T13:19:09;5.55;;;1.50;;
77022;SDS011;65952;51.440;-2.054;2024-01-15T13:21:38;2.58;;;1.52;;
77022;SDS011;65952;51.440;-2.054;2024-01-15T13:24:04;5.32;;;1.60;;
77022;SDS011;65952;51.440;-2.054;2024-01-15T13:26:31;2.75;;;1.60;;
77022;SDS011;65952;51.440;-2.054;2024-01-15T13:28:57;4.22;;;1.55;;
77022;SDS011;65952;51.440;-2.054;2024-01-15T13:31:24;4.70;;;1.67;;
77022;SDS011;65952;51.440;-2.054;2024-01-15T13:33:50;7.28;;;1.90;;
77022;SDS011;65952;51.440;-2.054;2024-01-15T13:36:15;4.35;;;1.40;;
77022;SDS011;65952;51.440;-2.054;2024-01-15T13:38:40;3.35;;;1.60;;
77022;SDS011;65952;51.440;-2.054;2024-01-15T13:41:07;2.55;;;1.40;;
77022;SDS011;65952;51.440;-2.054;2024-01-15T13:43:33;2.92;;;1.50;;
77022;SDS011;65952;51.440;-2.054;2024-01-15T13:45:59;3.03;;;1.50;;
77022;SDS011;65952;51.440;-2.054;2024-01-15T13:48:24;2.65;;;1.48;;
77022;SDS011;65952;51.440;-2.054;2024-01-15T13:50:51;3.47;;;1.50;;
77022;SDS011;65952;51.440;-2.054;2024-01-15T13:53:17;2.53;;;1.40;;
77022;SDS011;65952;51.440;-2.054;2024-01-15T13:55:44;2.83;;;1.58;;
77022;SDS011;65952;51.440;-2.054;2024-01-15T13:58:09;2.22;;;1.50;;
77022;SDS011;65952;51.440;-2.054;2024-01-15T14:00:35;3.35;;;1.60;;
77022;SDS011;65952;51.440;-2.054;2024-01-15T14:03:01;3.47;;;1.30;;
77022;SDS011;65952;51.440;-2.054;2024-01-15T14:05:27;3.28;;;1.63;;
77022;SDS011;65952;51.440;-2.054;2024-01-15T14:07:53;3.67;;;1.50;;
77022;SDS011;65952;51.440;-2.054;2024-01-15T14:10:18;4.13;;;1.50;;
77022;SDS011;65952;51.440;-2.054;2024-01-15T14:12:43;2.95;;;1.45;;
77022;SDS011;65952;51.440;-2.054;2024-01-15T14:15:09;2.45;;;1.42;;
77022;SDS011;65952;51.440;-2.054;2024-01-15T14:17:34;3.72;;;1.70;;
77022;SDS011;65952;51.440;-2.054;2024-01-15T14:20:00;3.70;;;1.70;;
77022;SDS011;65952;51.440;-2.054;2024-01-15T14:22:25;2.83;;;1.60;;
77022;SDS011;65952;51.440;-2.054;2024-01-15T14:24:51;4.80;;;1.60;;
77022;SDS011;65952;51.440;-2.054;2024-01-15T14:27:17;3.30;;;1.58;;
77022;SDS011;65952;51.440;-2.054;2024-01-15T14:29:42;3.65;;;1.80;;
77022;SDS011;65952;51.440;-2.054;2024-01-15T14:32:07;5.30;;;1.90;;
77022;SDS011;65952;51.440;-2.054;2024-01-15T14:34:33;3.45;;;1.67;;
77022;SDS011;65952;51.440;-2.054;2024-01-15T14:37:01;3.75;;;1.65;;